DATOS DEL TIEMPO

AYER
Time Temp. Dewp. Hum. Direcció Velocidad Wind gust Bar. 1h Prec. 24h Prec.
00:04 17.5 14 80 225 0.3 1.1 1011.7 0.0000 0.0000
00:15 17.5 14.2 81 213 0.3 1.1 1011.7 0.0000 0.0000
00:25 17.5 14.2 81 206 0.3 1.4 1011.6 0.0000 0.0000
00:34 17.5 14.2 81 206 0.3 1.7 1011.6 0.0000 0.0000
00:45 17.4 14.3 82 225 0.3 1.4 1011.6 0.0000 0.0000
00:55 17.4 14.3 82 225 0.3 1.1 1011.6 0.0000 0.0000
01:05 17.4 14.3 82 270 0.3 1.1 1011.7 0.0000 0.0000
01:15 17.3 14.4 83 225 0.3 1.4 1011.5 0.0000 0.0000
01:25 17.3 14.4 83 180 0.3 1.1 1011.6 0.0000 0.0000
01:35 17.3 14.4 83 191 0.3 1.4 1011.5 0.0000 0.0000
01:45 17.2 14.3 83 180 0.3 1.1 1011.6 0.0000 0.0000
01:55 17.2 14.5 84 225 0.3 1.4 1011.6 0.0000 0.0000
02:06 17.1 14.4 84 180 0.3 1.1 1011.7 0.0000 0.0000
02:16 17.1 14.4 84 225 0.3 1.1 1011.6 0.0000 0.0000
02:25 17 14.3 84 90 0.3 1.1 1011.7 0.0000 0.0000
02:36 17 14.5 85 135 0.3 1.4 1011.7 0.0000 0.0000
02:46 16.9 14.4 85 142 0.3 1.4 1011.7 0.0000 0.0000
02:56 16.8 14.3 85 135 0.3 1.1 1011.8 0.0000 0.0000
03:06 16.7 14.3 86 135 0.3 2.2 1011.7 0.0000 0.0000
03:16 16.7 14.3 86 180 0.3 1.7 1011.7 0.0000 0.0000
03:26 16.7 14.3 86 270 0.3 1.1 1011.7 0.0000 0.0000
03:36 16.7 14.3 86 142 0.3 1.7 1011.7 0.0000 0.0000
03:47 16.7 14.3 86 135 0.3 1.4 1011.8 0.0000 0.0000
03:57 16.7 14.3 86 135 0.3 1.1 1011.7 0.0000 0.0000
04:06 16.7 14.3 86 168 0.3 1.7 1011.7 0.0000 0.0000
04:16 16.7 14.3 86 0 0.3 1.1 1011.9 0.0000 0.0000
04:26 16.7 14.3 86 135 0.3 0.8 1011.8 0.0000 0.0000
04:37 16.7 14.3 86 135 0.3 1.1 1011.8 0.0000 0.0000
04:47 16.7 14.3 86 135 0.3 1.1 1011.8 0.0000 0.0000
04:57 16.7 14.3 86 135 0.3 1.1 1011.8 0.0000 0.0000
05:07 16.7 14.3 86 90 0.3 1.1 1011.8 0.0000 0.0000
05:17 16.7 14.3 86 135 0.3 0.8 1011.7 0.0000 0.0000
05:27 16.7 14.3 86 135 0.3 1.7 1011.8 0.0000 0.0000
05:38 16.7 14.3 86 161 0.3 2.2 1011.8 0.0000 0.0000
05:47 16.7 14.3 86 135 0.3 1.1 1011.8 0.0000 0.0000
05:57 16.7 14.3 86 135 0.3 1.7 1011.8 0.0000 0.0000
06:08 16.7 14.3 86 135 0.3 0.8 1012 0.0000 0.0000
06:18 16.7 14.3 86 270 0.3 1.1 1012 0.0000 0.0000
06:28 16.7 14.3 86 0.3 0.8 1011.9 0.0000 0.0000
06:38 16.7 14.3 86 180 0.3 1.4 1012 0.0000 0.0000
06:48 16.7 14.3 86 180 0.3 1.4 1012.1 0.0000 0.0000
06:58 16.7 14.3 86 315 0.3 0.8 1012.2 0.0000 0.0000
07:08 16.7 14.3 86 90 0.3 0.8 1012.1 0.0000 0.0000
07:18 16.7 14.3 86 90 0.3 0.8 1012.2 0.0000 0.0000
07:29 16.6 14.3 86 90 0.3 1.4 1012.5 0.0000 0.0000
07:38 16.6 14.3 86 90 0.3 0.8 1012.4 0.0000 0.0000
07:48 16.6 14.3 86 135 0.3 1.1 1012.6 0.0000 0.0000
07:59 16.6 14.3 86 144 0.3 1.4 1012.8 0.0000 0.0000
08:09 16.7 14.3 86 135 0.3 1.1 1012.8 0.0000 0.0000
08:19 16.7 14.5 87 90 0.3 1.4 1012.8 0.0000 0.0000
08:28 16.8 14.6 87 135 0.3 1.1 1013 0.0000 0.0000
08:39 16.9 14.7 87 144 0.3 1.1 1012.8 0.0000 0.0000
08:49 17 14.8 87 150 0.3 1.4 1012.9 0.0000 0.0000
08:59 17.3 15.1 87 206 0.3 1.4 1013 0.0000 0.0000
09:09 17.4 15 86 225 0.3 1.4 1013.1 0.0000 0.0000
09:19 17.5 15.1 86 225 0.3 0.8 1013.2 0.0000 0.0000
09:29 17.6 15.2 86 234 0.3 1.1 1013.4 0.0000 0.0000
09:39 17.6 15.2 86 270 0.3 0.8 1013.5 0.0000 0.0000
09:50 17.6 15.2 86 270 0.3 1.1 1013.6 0.0000 0.0000
10:00 17.7 15.3 86 153 0.3 1.7 1013.7 0.0000 0.0000
10:09 17.8 15.4 86 135 0.3 1.4 1014 0.0000 0.0000
10:20 18 15.6 86 135 0.3 1.4 1014.1 0.0000 0.0000
10:30 18.1 15.7 86 135 0.3 1.7 1014 0.0000 0.0000
10:40 18.5 16.1 86 135 0.3 1.1 1014.1 0.0000 0.0000
10:50 18.8 16.2 85 0.3 1.1 1014.1 0.0000 0.0000
11:00 19.2 16.6 85 146 0.8 1.7 1014.2 0.0000 0.0000
11:10 19.7 16.9 84 143 0.3 1.7 1014 0.0000 0.0000
11:20 20.4 17.4 83 171 0.3 1.4 1014.1 0.0000 0.0000
11:30 20.6 17.2 81 204 0.3 1.1 1014 0.0000 0.0000
11:41 21 17.6 81 90 0.3 1.1 1014.1 0.0000 0.0000
11:51 21.1 17.5 80 90 0.3 1.1 1014.2 0.0000 0.0000
12:00 21.4 17.6 79 135 0.3 1.1 1014.1 0.0000 0.0000
12:11 21.4 17.2 77 135 0.3 1.7 1014.3 0.0000 0.0000
12:21 21.3 17.5 79 90 0.3 1.1 1014.3 0.0000 0.0000
12:31 21.5 17.7 79 151 0.3 2.2 1014.2 0.0000 0.0000
12:41 21.8 18 79 173 0.3 1.7 1014.5 0.0000 0.0000
12:51 22 17.6 76 135 0.3 1.1 1014.4 0.0000 0.0000
13:01 21.7 17.5 77 45 0.3 1.1 1014.4 0.0000 0.0000
13:11 21.5 17.3 77 90 0.3 1.4 1014.4 0.0000 0.0000
13:22 21.6 17.6 78 135 0.3 1.4 1014.4 0.0000 0.0000
13:32 21.6 17.6 78 135 0.3 1.1 1014.3 0.0000 0.0000
13:41 21.6 17.6 78 161 0.3 1.4 1014.3 0.0000 0.0000
14:02 21.7 17.7 78 186 0.3 0.8 1014.3 0.0000 0.0000
14:12 21.7 17.7 78 188 0.3 0.8 1014.3 0.0000 0.0000
14:22 21.8 17.6 77 152 0.3 1.7 1014.2 0.0000 0.0000
14:32 21.8 17.6 77 135 0.3 1.4 1014.2 0.0000 0.0000
14:42 21.7 17.5 77 161 0.3 2.8 1014.2 0.0000 0.0000
14:52 21.8 17.6 77 158 0.3 1.7 1014 0.0000 0.0000
15:02 22 17.8 77 180 0.3 1.1 1014.1 0.0000 0.0000
15:13 22 17.6 76 180 0.3 1.1 1014.1 0.0000 0.0000
15:23 22 17.6 76 155 0.3 1.4 1014.1 0.0000 0.0000
15:32 21.9 17.5 76 135 0.3 1.4 1014.2 0.0000 0.0000
15:42 21.7 17.5 77 90 0.3 1.4 1014.3 0.0000 0.0000
15:53 21.7 17.5 77 135 0.3 1.4 1014.3 0.0000 0.0000
16:03 21.6 17.4 77 123 0.3 1.4 1014.3 0.0000 0.0000
16:13 21.6 17.4 77 149 0.3 1.4 1014.1 0.0000 0.0000
16:23 21.5 17.3 77 90 0.3 0.8 1014.2 0.0000 0.0000
16:33 21.4 17.2 77 90 0.3 1.1 1014.2 0.0000 0.0000
16:43 21.2 17.2 78 90 0.3 1.1 1014.2 0.0000 0.0000
16:53 21.2 17.2 78 90 0.3 1.4 1014.3 0.0000 0.0000
17:04 21 17 78 90 0.3 1.1 1014.3 0.0000 0.0000
17:13 21 17.2 79 0 0.8 1014.2 0.0000 0.0000
17:23 21 17.2 79 0 0.8 1014.2 0.0000 0.0000
17:34 20.9 17.1 79 90 0.3 0.8 1014.3 0.0000 0.0000
17:44 20.9 17.1 79 0 0.3 1014.3 0.0000 0.0000
17:54 20.6 17 80 270 0.3 1.1 1014.3 0.0000 0.0000
18:03 20.3 16.9 81 236 0.3 0.8 1014.4 0.0000 0.0000
18:14 20.1 16.9 82 198 0.3 1.1 1014.3 0.0000 0.0000
18:24 19.8 16.6 82 0 0.8 1014.4 0.0000 0.0000
18:34 19.7 16.7 83 0 0.8 1014.5 0.0000 0.0000
18:44 19.6 16.6 83 0 1.1 1014.4 0.0000 0.0000
18:54 19.4 16.4 83 33 0.3 0.8 1014.4 0.0000 0.0000
19:04 19.3 16.3 83 39 0.3 1.4 1014.4 0.0000 0.0000
19:14 19.2 16.4 84 37 0.3 1.1 1014.6 0.0000 0.0000
19:25 19.1 16.3 84 33 0.3 1.1 1014.6 0.0000 0.0000
19:35 19 16.2 84 24 0.3 1.1 1014.6 0.0000 0.0000
19:45 18.9 16.1 84 29 0.3 1.1 1014.7 0.0000 0.0000
19:55 18.8 16 84 0 0.8 1014.8 0.0000 0.0000
20:05 18.8 16 84 0 1.1 1014.7 0.0000 0.0000
20:15 18.8 16 84 6 0.3 1.1 1014.6 0.0000 0.0000
20:25 18.6 15.8 84 24 0.3 1.4 1014.8 0.0000 0.0000
20:35 18.6 16 85 0 0.8 1014.9 0.0000 0.0000
20:45 18.5 15.9 85 18 0.3 1.4 1014.9 0.0000 0.0000
20:55 18.4 15.8 85 45 0.3 1.4 1014.8 0.0000 0.0000
21:05 18.3 15.7 85 0 0.8 1014.9 0.0000 0.0000
21:16 18.3 15.7 85 26 0.3 0.8 1014.9 0.0000 0.0000
21:25 18.2 15.8 86 0 0.3 1.1 1014.8 0.0000 0.0000
21:35 18.1 15.7 86 33 0.3 1.4 1014.9 0.0000 0.0000
21:46 18.1 15.7 86 0 0.8 1015 0.0000 0.0000
21:56 18.1 15.7 86 18 0.3 1.1 1014.9 0.0000 0.0000
22:06 18.1 15.7 86 0 0.8 1014.9 0.0000 0.0000
22:16 18 15.6 86 0 0.8 1014.9 0.0000 0.0000
22:26 18 15.6 86 21 0.3 1.4 1015 0.0000 0.0000
22:36 18 15.6 86 333 0.3 0.8 1015 0.0000 0.0000
22:46 17.9 15.5 86 26 0.3 1.1 1014.9 0.0000 0.0000
22:56 17.9 15.5 86 18 0.3 0.8 1014.9 0.0000 0.0000
23:07 17.8 15.6 87 348 0.3 1.1 1014.8 0.0000 0.0000
23:16 17.8 15.6 87 329 0.3 1.4 1014.9 0.0000 0.0000
23:27 17.8 15.6 87 0 0.8 1014.8 0.0000 0.0000
23:37 17.8 15.6 87 0 0.8 1014.7 0.0000 0.0000
23:47 17.7 15.5 87 0 0.3 1.1 1014.8 0.0000 0.0000
23:57 17.7 15.5 87 23 0.3 1.4 1014.7 0.0000

ESTADÍSTICA DEL DÍA

2021-09-25
TEMPERATURA
NORMAL
18.7
ALTO
22.0
12:51
BAJA
16.6
07:29
PRESIÓN
NORMAL
1013.5
ALTO
1015.0
21:46
BAJA
1011.5
01:15
PUNTO DE ROCÍO
NORMAL
15.7
ALTO
18.0
12:41
BAJA
14.0
00:04
HUMEDAD
NORMAL
83
ALTO
87
08:19
BAJA
76
12:51
VELOCIDAD DEL VIENTO
NORMAL
0.3
ALTO
0.8
11:00
WIND GUST
NORMAL
1.2
ALTO
2.8
14:42
DIRECCIÓN DEL VIENTO
PREDOMINANTE
SE
29.6%
N
6.3
NE
9.2
E
12.7
SE
29.6
S
14.1
SO
9.9
O
4.2
NO
2.1
PRECIPITACIÓN
LLUVIA ACUMULADA ÚLTIMA HORA
0.0
LLUVIA ACUMULADA DURANTE EL DÍA
0.0
TEMPERATURA (°C)
BAJA
16.6
ALTO
22.0
NORMAL
18.7
PRESIÓN (hpa)
BAJA
1011.5
ALTO
1015.0
NORMAL
1013.5
DEVICE